sensor_id;sensor_type;location;lat;lon;timestamp;pressure;altitude;pressure_sealevel;temperature;humidity
30935;BME280;51033;42.648;23.292;2022-10-19T00:01:18;94429.44;;;9.41;40.28
30935;BME280;51033;42.648;23.292;2022-10-19T00:03:46;94444.59;;;9.55;40.02
30935;BME280;51033;42.648;23.292;2022-10-19T00:06:18;94458.13;;;9.58;40.52
30935;BME280;51033;42.648;23.292;2022-10-19T00:08:44;94449.59;;;9.42;40.27
30935;BME280;51033;42.648;23.292;2022-10-19T00:11:10;94459.63;;;9.45;40.51
30935;BME280;51033;42.648;23.292;2022-10-19T00:13:36;94437.75;;;9.35;40.45
30935;BME280;51033;42.648;23.292;2022-10-19T00:16:07;94454.91;;;9.42;40.42
30935;BME280;51033;42.648;23.292;2022-10-19T00:18:33;94450.16;;;9.39;40.58
30935;BME280;51033;42.648;23.292;2022-10-19T00:21:07;94433.16;;;9.40;40.76
30935;BME280;51033;42.648;23.292;2022-10-19T00:23:33;94442.66;;;9.28;40.98
30935;BME280;51033;42.648;23.292;2022-10-19T00:25:59;94435.50;;;9.28;40.91
30935;BME280;51033;42.648;23.292;2022-10-19T00:28:25;94396.97;;;8.93;41.20
30935;BME280;51033;42.648;23.292;2022-10-19T00:30:50;94405.28;;;9.06;41.15
30935;BME280;51033;42.648;23.292;2022-10-19T00:33:15;94403.78;;;8.99;41.37
30935;BME280;51033;42.648;23.292;2022-10-19T00:35:49;94373.91;;;8.94;41.22
30935;BME280;51033;42.648;23.292;2022-10-19T00:38:16;94407.00;;;9.15;41.23
30935;BME280;51033;42.648;23.292;2022-10-19T00:40:42;94407.00;;;9.15;41.07
30935;BME280;51033;42.648;23.292;2022-10-19T00:43:13;94398.56;;;9.13;41.01
30935;BME280;51033;42.648;23.292;2022-10-19T00:45:38;94397.97;;;9.16;41.03
30935;BME280;51033;42.648;23.292;2022-10-19T00:48:05;94401.16;;;9.18;40.97
30935;BME280;51033;42.648;23.292;2022-10-19T00:50:31;94383.72;;;9.12;41.28
30935;BME280;51033;42.648;23.292;2022-10-19T00:52:56;94388.94;;;9.17;41.16
30935;BME280;51033;42.648;23.292;2022-10-19T00:55:23;94388.94;;;9.17;41.06
30935;BME280;51033;42.648;23.292;2022-10-19T00:57:48;94367.41;;;9.00;41.08
30935;BME280;51033;42.648;23.292;2022-10-19T01:00:14;94387.97;;;9.13;41.17
30935;BME280;51033;42.648;23.292;2022-10-19T01:02:39;94388.47;;;9.10;41.36
30935;BME280;51033;42.648;23.292;2022-10-19T01:05:05;94382.78;;;9.03;41.26
30935;BME280;51033;42.648;23.292;2022-10-19T01:07:31;94371.88;;;9.05;41.54
30935;BME280;51033;42.648;23.292;2022-10-19T01:09:58;94338.13;;;8.73;41.48
30935;BME280;51033;42.648;23.292;2022-10-19T01:12:43;94355.41;;;8.89;41.42
30935;BME280;51033;42.648;23.292;2022-10-19T01:18:34;94358.84;;;8.89;41.93
30935;BME280;51033;42.648;23.292;2022-10-19T01:26:36;94358.19;;;8.97;41.50
30935;BME280;51033;42.648;23.292;2022-10-19T01:29:39;94352.09;;;8.97;41.57
30935;BME280;51033;42.648;23.292;2022-10-19T01:32:12;94336.91;;;8.84;41.65
30935;BME280;51033;42.648;23.292;2022-10-19T01:34:50;94321.16;;;8.74;41.64
30935;BME280;51033;42.648;23.292;2022-10-19T01:40:11;94344.22;;;8.92;41.72
30935;BME280;51033;42.648;23.292;2022-10-19T01:42:51;94343.72;;;8.90;41.50
30935;BME280;51033;42.648;23.292;2022-10-19T01:48:03;94337.91;;;8.88;41.52
30935;BME280;51033;42.648;23.292;2022-10-19T01:50:35;94307.38;;;8.72;41.84
30935;BME280;51033;42.648;23.292;2022-10-19T01:53:05;94288.19;;;8.61;41.94
30935;BME280;51033;42.648;23.292;2022-10-19T01:55:32;94301.00;;;8.73;41.57
30935;BME280;51033;42.648;23.292;2022-10-19T01:58:07;94320.22;;;8.83;41.88
30935;BME280;51033;42.648;23.292;2022-10-19T02:00:37;94326.00;;;8.85;42.02
30935;BME280;51033;42.648;23.292;2022-10-19T02:03:05;94326.31;;;8.84;42.15
30935;BME280;51033;42.648;23.292;2022-10-19T02:05:32;94329.44;;;8.86;42.02
30935;BME280;51033;42.648;23.292;2022-10-19T02:08:02;94307.38;;;8.72;41.73
30935;BME280;51033;42.648;23.292;2022-10-19T02:10:30;94326.88;;;8.81;42.02
30935;BME280;51033;42.648;23.292;2022-10-19T02:12:57;94330.91;;;8.78;41.88
30935;BME280;51033;42.648;23.292;2022-10-19T02:15:24;94316.41;;;8.71;41.89
30935;BME280;51033;42.648;23.292;2022-10-19T02:17:53;94322.75;;;8.75;42.11
30935;BME280;51033;42.648;23.292;2022-10-19T02:20:21;94285.59;;;8.56;42.04
30935;BME280;51033;42.648;23.292;2022-10-19T02:22:46;94322.31;;;8.68;41.92
30935;BME280;51033;42.648;23.292;2022-10-19T02:25:12;94305.53;;;8.53;41.89
30935;BME280;51033;42.648;23.292;2022-10-19T02:27:38;94320.72;;;8.67;42.04
30935;BME280;51033;42.648;23.292;2022-10-19T02:30:09;94319.16;;;8.66;42.10
30935;BME280;51033;42.648;23.292;2022-10-19T02:32:35;94319.88;;;8.52;41.93
30935;BME280;51033;42.648;23.292;2022-10-19T02:35:00;94285.16;;;8.35;41.88
30935;BME280;51033;42.648;23.292;2022-10-19T02:37:26;94305.75;;;8.57;42.18
30935;BME280;51033;42.648;23.292;2022-10-19T02:39:51;94286.50;;;8.33;42.26
30935;BME280;51033;42.648;23.292;2022-10-19T02:42:26;94312.22;;;8.51;42.05
30935;BME280;51033;42.648;23.292;2022-10-19T02:47:29;94321.66;;;8.57;41.84
30935;BME280;51033;42.648;23.292;2022-10-19T02:49:57;94326.75;;;8.53;41.78
30935;BME280;51033;42.648;23.292;2022-10-19T02:52:22;94308.28;;;8.48;42.15
30935;BME280;51033;42.648;23.292;2022-10-19T02:54:47;94318.53;;;8.55;42.05
30935;BME280;51033;42.648;23.292;2022-10-19T02:57:18;94310.84;;;8.53;42.02
30935;BME280;51033;42.648;23.292;2022-10-19T02:59:45;94279.84;;;8.35;42.16
30935;BME280;51033;42.648;23.292;2022-10-19T03:02:11;94286.22;;;8.34;42.11
30935;BME280;51033;42.648;23.292;2022-10-19T03:04:37;94299.25;;;8.49;42.13
30935;BME280;51033;42.648;23.292;2022-10-19T03:07:02;94307.41;;;8.53;41.88
30935;BME280;51033;42.648;23.292;2022-10-19T03:09:27;94308.28;;;8.48;41.88
30935;BME280;51033;42.648;23.292;2022-10-19T03:11:54;94310.41;;;8.46;42.21
30935;BME280;51033;42.648;23.292;2022-10-19T03:14:20;94286.00;;;8.31;42.27
30935;BME280;51033;42.648;23.292;2022-10-19T03:16:45;94298.69;;;8.34;42.18
30935;BME280;51033;42.648;23.292;2022-10-19T03:19:11;94267.75;;;8.10;42.62
30935;BME280;51033;42.648;23.292;2022-10-19T03:21:36;94310.59;;;8.36;42.51
30935;BME280;51033;42.648;23.292;2022-10-19T03:24:02;94317.16;;;8.39;42.60
30935;BME280;51033;42.648;23.292;2022-10-19T03:26:27;94252.97;;;8.04;42.22
30935;BME280;51033;42.648;23.292;2022-10-19T03:28:52;94314.31;;;8.35;42.27
30935;BME280;51033;42.648;23.292;2022-10-19T03:31:18;94292.50;;;8.20;42.62
30935;BME280;51033;42.648;23.292;2022-10-19T03:33:44;94260.78;;;7.96;42.85
30935;BME280;51033;42.648;23.292;2022-10-19T03:38:49;94245.25;;;7.89;42.67
30935;BME280;51033;42.648;23.292;2022-10-19T03:41:16;94273.09;;;8.05;42.78
30935;BME280;51033;42.648;23.292;2022-10-19T03:43:41;94294.31;;;8.24;42.67
30935;BME280;51033;42.648;23.292;2022-10-19T03:46:07;94291.94;;;8.23;42.99
30935;BME280;51033;42.648;23.292;2022-10-19T03:48:33;94270.72;;;8.04;42.91
30935;BME280;51033;42.648;23.292;2022-10-19T03:51:07;94296.31;;;8.13;42.76
30935;BME280;51033;42.648;23.292;2022-10-19T03:53:33;94295.31;;;8.09;43.16
30935;BME280;51033;42.648;23.292;2022-10-19T03:58:31;94278.59;;;7.90;43.21
30935;BME280;51033;42.648;23.292;2022-10-19T04:00:57;94242.03;;;7.68;43.50
30935;BME280;51033;42.648;23.292;2022-10-19T04:03:22;94278.44;;;7.82;43.48
30935;BME280;51033;42.648;23.292;2022-10-19T04:05:48;94280.00;;;7.83;43.52
30935;BME280;51033;42.648;23.292;2022-10-19T04:08:13;94284.28;;;7.79;43.53
30935;BME280;51033;42.648;23.292;2022-10-19T04:10:38;94298.47;;;7.88;43.50
30935;BME280;51033;42.648;23.292;2022-10-19T04:13:04;94245.91;;;7.57;43.53
30935;BME280;51033;42.648;23.292;2022-10-19T04:15:29;94267.44;;;7.69;43.78
30935;BME280;51033;42.648;23.292;2022-10-19T04:17:54;94259.22;;;7.71;44.05
30935;BME280;51033;42.648;23.292;2022-10-19T04:20:20;94236.75;;;7.45;44.19
30935;BME280;51033;42.648;23.292;2022-10-19T04:22:45;94275.34;;;7.75;44.36
30935;BME280;51033;42.648;23.292;2022-10-19T04:25:10;94245.66;;;7.54;44.23
30935;BME280;51033;42.648;23.292;2022-10-19T04:27:36;94272.16;;;7.78;44.37
30935;BME280;51033;42.648;23.292;2022-10-19T04:30:02;94236.59;;;7.60;44.18
30935;BME280;51033;42.648;23.292;2022-10-19T04:32:28;94235.50;;;7.61;44.16
30935;BME280;51033;42.648;23.292;2022-10-19T04:34:53;94265.69;;;7.84;44.10
30935;BME280;51033;42.648;23.292;2022-10-19T04:37:18;94237.88;;;7.62;44.07
30935;BME280;51033;42.648;23.292;2022-10-19T04:39:44;94242.03;;;7.68;44.26
30935;BME280;51033;42.648;23.292;2022-10-19T04:42:09;94267.06;;;7.81;44.28
30935;BME280;51033;42.648;23.292;2022-10-19T04:44:35;94254.19;;;7.69;44.12
30935;BME280;51033;42.648;23.292;2022-10-19T04:47:00;94224.25;;;7.50;44.24
30935;BME280;51033;42.648;23.292;2022-10-19T04:49:25;94258.69;;;7.69;44.29
30935;BME280;51033;42.648;23.292;2022-10-19T04:51:51;94272.22;;;7.73;44.72
30935;BME280;51033;42.648;23.292;2022-10-19T04:54:16;94277.75;;;7.71;44.38
30935;BME280;51033;42.648;23.292;2022-10-19T04:56:42;94282.84;;;7.67;44.59
30935;BME280;51033;42.648;23.292;2022-10-19T04:59:08;94281.25;;;7.66;44.88
30935;BME280;51033;42.648;23.292;2022-10-19T05:01:34;94274.50;;;7.55;45.07
30935;BME280;51033;42.648;23.292;2022-10-19T05:04:01;94281.31;;;7.61;45.19
30935;BME280;51033;42.648;23.292;2022-10-19T05:06:27;94242.84;;;7.45;45.18
30935;BME280;51033;42.648;23.292;2022-10-19T05:08:53;94213.00;;;7.16;45.19
30935;BME280;51033;42.648;23.292;2022-10-19T05:11:19;94274.69;;;7.59;45.17
30935;BME280;51033;42.648;23.292;2022-10-19T05:13:45;94274.50;;;7.55;45.47
30935;BME280;51033;42.648;23.292;2022-10-19T05:16:15;94272.91;;;7.54;45.63
30935;BME280;51033;42.648;23.292;2022-10-19T05:18:42;94267.63;;;7.54;45.95
30935;BME280;51033;42.648;23.292;2022-10-19T05:21:12;94269.19;;;7.55;45.96
30935;BME280;51033;42.648;23.292;2022-10-19T05:23:39;94261.25;;;7.55;45.84
30935;BME280;51033;42.648;23.292;2022-10-19T05:26:12;94258.66;;;7.50;46.43
30935;BME280;51033;42.648;23.292;2022-10-19T05:28:38;94262.31;;;7.54;46.13
30935;BME280;51033;42.648;23.292;2022-10-19T05:31:17;94263.06;;;7.60;46.30
30935;BME280;51033;42.648;23.292;2022-10-19T05:33:43;94232.59;;;7.39;46.41
30935;BME280;51033;42.648;23.292;2022-10-19T05:36:19;94278.59;;;7.66;46.34
30935;BME280;51033;42.648;23.292;2022-10-19T05:38:47;94245.22;;;7.47;46.41
30935;BME280;51033;42.648;23.292;2022-10-19T05:41:14;94258.50;;;7.65;46.29
30935;BME280;51033;42.648;23.292;2022-10-19T05:43:40;94254.72;;;7.71;46.33
30935;BME280;51033;42.648;23.292;2022-10-19T05:46:08;94252.25;;;7.80;46.08
30935;BME280;51033;42.648;23.292;2022-10-19T05:48:34;94239.59;;;7.77;46.24
30935;BME280;51033;42.648;23.292;2022-10-19T05:51:01;94266.81;;;8.01;45.90
30935;BME280;51033;42.648;23.292;2022-10-19T05:53:27;94216.06;;;7.70;45.95
30935;BME280;51033;42.648;23.292;2022-10-19T05:55:53;94275.75;;;8.24;45.68
30935;BME280;51033;42.648;23.292;2022-10-19T05:58:18;94281.50;;;8.31;45.27
30935;BME280;51033;42.648;23.292;2022-10-19T06:00:53;94279.97;;;8.44;45.24
30935;BME280;51033;42.648;23.292;2022-10-19T06:03:19;94257.00;;;8.39;45.46
30935;BME280;51033;42.648;23.292;2022-10-19T06:05:46;94267.84;;;8.56;45.08
30935;BME280;51033;42.648;23.292;2022-10-19T06:08:12;94280.06;;;8.71;45.20
30935;BME280;51033;42.648;23.292;2022-10-19T06:10:37;94259.03;;;8.61;44.96
30935;BME280;51033;42.648;23.292;2022-10-19T06:13:02;94202.94;;;8.22;44.98
30935;BME280;51033;42.648;23.292;2022-10-19T06:15:28;94278.38;;;8.80;45.15
30935;BME280;51033;42.648;23.292;2022-10-19T06:17:56;94249.72;;;8.64;44.66
30935;BME280;51033;42.648;23.292;2022-10-19T06:20:21;94301.19;;;8.95;44.80
30935;BME280;51033;42.648;23.292;2022-10-19T06:22:47;94277.97;;;8.87;44.93
30935;BME280;51033;42.648;23.292;2022-10-19T06:25:12;94304.16;;;9.07;44.42
30935;BME280;51033;42.648;23.292;2022-10-19T06:27:37;94262.56;;;8.89;44.61
30935;BME280;51033;42.648;23.292;2022-10-19T06:30:03;94278.66;;;9.11;44.34
30935;BME280;51033;42.648;23.292;2022-10-19T06:32:29;94306.31;;;9.37;44.18
30935;BME280;51033;42.648;23.292;2022-10-19T06:34:54;94303.69;;;9.51;44.10
30935;BME280;51033;42.648;23.292;2022-10-19T06:37:20;94258.81;;;9.36;43.97
30935;BME280;51033;42.648;23.292;2022-10-19T06:39:45;94290.31;;;9.70;43.90
30935;BME280;51033;42.648;23.292;2022-10-19T06:42:11;94257.28;;;9.49;43.57
30935;BME280;51033;42.648;23.292;2022-10-19T06:44:36;94254.91;;;9.61;43.32
30935;BME280;51033;42.648;23.292;2022-10-19T06:47:01;94276.34;;;9.78;43.05
30935;BME280;51033;42.648;23.292;2022-10-19T06:49:27;94294.03;;;9.96;42.84
30935;BME280;51033;42.648;23.292;2022-10-19T06:51:52;94301.31;;;10.04;43.06
30935;BME280;51033;42.648;23.292;2022-10-19T06:54:18;94252.72;;;9.90;43.05
30935;BME280;51033;42.648;23.292;2022-10-19T06:56:43;94250.91;;;9.99;42.71
30935;BME280;51033;42.648;23.292;2022-10-19T06:59:08;94248.56;;;10.11;42.91
30935;BME280;51033;42.648;23.292;2022-10-19T07:01:34;94277.44;;;10.40;42.67
30935;BME280;51033;42.648;23.292;2022-10-19T07:04:00;94275.66;;;10.36;42.59
30935;BME280;51033;42.648;23.292;2022-10-19T07:06:26;94267.41;;;10.37;42.42
30935;BME280;51033;42.648;23.292;2022-10-19T07:08:52;94182.25;;;9.93;42.31
30935;BME280;51033;42.648;23.292;2022-10-19T07:11:20;94271.47;;;10.57;42.57
30935;BME280;51033;42.648;23.292;2022-10-19T07:13:46;94255.84;;;10.42;41.80
30935;BME280;51033;42.648;23.292;2022-10-19T07:16:15;94277.78;;;10.61;41.92
30935;BME280;51033;42.648;23.292;2022-10-19T07:18:41;94251.41;;;10.51;42.02
30935;BME280;51033;42.648;23.292;2022-10-19T07:21:09;94279.81;;;10.86;41.87
30935;BME280;51033;42.648;23.292;2022-10-19T07:23:36;94241.97;;;10.67;41.00
30935;BME280;51033;42.648;23.292;2022-10-19T07:26:18;94256.72;;;10.95;41.03
30935;BME280;51033;42.648;23.292;2022-10-19T07:28:46;94263.25;;;10.89;41.17
30935;BME280;51033;42.648;23.292;2022-10-19T07:31:15;94269.63;;;11.10;41.47
30935;BME280;51033;42.648;23.292;2022-10-19T07:33:44;94244.84;;;11.01;41.56
30935;BME280;51033;42.648;23.292;2022-10-19T07:36:11;94263.09;;;11.16;41.46
30935;BME280;51033;42.648;23.292;2022-10-19T07:38:38;94252.75;;;11.15;41.52
30935;BME280;51033;42.648;23.292;2022-10-19T07:43:29;94253.94;;;11.31;40.78
30935;BME280;51033;42.648;23.292;2022-10-19T07:45:59;94196.06;;;10.84;40.87
30935;BME280;51033;42.648;23.292;2022-10-19T07:48:25;94209.81;;;10.77;41.21
30935;BME280;51033;42.648;23.292;2022-10-19T07:50:51;94245.91;;;11.23;40.87
30935;BME280;51033;42.648;23.292;2022-10-19T07:53:16;94227.91;;;10.97;41.59
30935;BME280;51033;42.648;23.292;2022-10-19T07:55:41;94235.94;;;11.06;40.99
30935;BME280;51033;42.648;23.292;2022-10-19T07:58:07;94199.13;;;10.99;41.44
30935;BME280;51033;42.648;23.292;2022-10-19T08:00:32;94208.34;;;11.24;41.65
30935;BME280;51033;42.648;23.292;2022-10-19T08:02:58;94193.72;;;11.13;41.71
30935;BME280;51033;42.648;23.292;2022-10-19T08:05:23;94217.72;;;11.52;41.86
30935;BME280;51033;42.648;23.292;2022-10-19T08:07:48;94209.09;;;11.64;41.56
30935;BME280;51033;42.648;23.292;2022-10-19T08:10:14;94207.56;;;11.63;40.35
30935;BME280;51033;42.648;23.292;2022-10-19T08:12:39;94226.25;;;11.80;40.41
30935;BME280;51033;42.648;23.292;2022-10-19T08:15:05;94218.25;;;11.89;40.09
30935;BME280;51033;42.648;23.292;2022-10-19T08:17:34;94223.78;;;12.01;40.02
30935;BME280;51033;42.648;23.292;2022-10-19T08:19:59;94229.25;;;12.13;39.78
30935;BME280;51033;42.648;23.292;2022-10-19T08:22:25;94223.00;;;12.18;39.72
30935;BME280;51033;42.648;23.292;2022-10-19T08:24:50;94186.59;;;12.04;39.82
30935;BME280;51033;42.648;23.292;2022-10-19T08:27:16;94147.72;;;11.86;39.94
30935;BME280;51033;42.648;23.292;2022-10-19T08:29:41;94193.50;;;12.23;39.67
30935;BME280;51033;42.648;23.292;2022-10-19T08:32:07;94216.88;;;12.43;39.70
30935;BME280;51033;42.648;23.292;2022-10-19T08:34:32;94203.09;;;12.41;39.87
30935;BME280;51033;42.648;23.292;2022-10-19T08:36:58;94199.50;;;12.37;39.66
30935;BME280;51033;42.648;23.292;2022-10-19T08:39:25;94196.97;;;12.40;39.02
30935;BME280;51033;42.648;23.292;2022-10-19T08:42:15;94209.81;;;12.47;39.43
30935;BME280;51033;42.648;23.292;2022-10-19T08:50:37;94188.38;;;12.61;39.02
30935;BME280;51033;42.648;23.292;2022-10-19T08:53:06;94191.94;;;12.73;37.96
30935;BME280;51033;42.648;23.292;2022-10-19T09:01:28;94142.66;;;12.62;38.91
30935;BME280;51033;42.648;23.292;2022-10-19T09:04:01;94147.06;;;12.75;38.41
30935;BME280;51033;42.648;23.292;2022-10-19T09:06:47;94169.75;;;12.99;37.84
30935;BME280;51033;42.648;23.292;2022-10-19T09:09:17;94186.81;;;13.15;38.35
30935;BME280;51033;42.648;23.292;2022-10-19T09:11:47;94155.31;;;13.00;38.84
30935;BME280;51033;42.648;23.292;2022-10-19T09:14:27;94188.03;;;13.26;37.65
30935;BME280;51033;42.648;23.292;2022-10-19T09:16:58;94178.00;;;13.23;38.10
30935;BME280;51033;42.648;23.292;2022-10-19T09:19:27;94185.91;;;13.40;38.41
30935;BME280;51033;42.648;23.292;2022-10-19T09:22:02;94189.66;;;13.48;37.95
30935;BME280;51033;42.648;23.292;2022-10-19T09:27:20;94153.91;;;13.31;37.93
30935;BME280;51033;42.648;23.292;2022-10-19T09:30:02;94159.66;;;13.42;37.77
30935;BME280;51033;42.648;23.292;2022-10-19T09:32:32;94190.28;;;13.53;37.99
30935;BME280;51033;42.648;23.292;2022-10-19T09:35:02;94174.25;;;13.45;38.13
30935;BME280;51033;42.648;23.292;2022-10-19T09:37:28;94193.25;;;13.60;37.28
30935;BME280;51033;42.648;23.292;2022-10-19T09:39:55;94191.16;;;13.66;37.05
30935;BME280;51033;42.648;23.292;2022-10-19T09:42:29;94166.22;;;13.53;36.75
30935;BME280;51033;42.648;23.292;2022-10-19T09:44:58;94189.75;;;13.68;37.28
30935;BME280;51033;42.648;23.292;2022-10-19T09:47:39;94177.22;;;13.60;36.77
30935;BME280;51033;42.648;23.292;2022-10-19T09:50:18;94186.97;;;13.86;36.72
30935;BME280;51033;42.648;23.292;2022-10-19T09:52:46;94180.88;;;14.06;36.43
30935;BME280;51033;42.648;23.292;2022-10-19T09:57:41;94171.41;;;14.08;36.37
30935;BME280;51033;42.648;23.292;2022-10-19T10:00:16;94184.78;;;14.29;36.43
30935;BME280;51033;42.648;23.292;2022-10-19T10:02:52;94186.34;;;14.30;36.27
30935;BME280;51033;42.648;23.292;2022-10-19T10:05:18;94175.19;;;14.28;36.48
30935;BME280;51033;42.648;23.292;2022-10-19T10:07:44;94178.16;;;14.47;36.53
30935;BME280;51033;42.648;23.292;2022-10-19T10:10:24;94171.00;;;14.60;36.04
30935;BME280;51033;42.648;23.292;2022-10-19T10:12:52;94169.75;;;14.57;34.91
30935;BME280;51033;42.648;23.292;2022-10-19T10:15:22;94161.28;;;14.55;34.44
30935;BME280;51033;42.648;23.292;2022-10-19T10:17:49;94163.00;;;14.72;33.76
30935;BME280;51033;42.648;23.292;2022-10-19T10:23:03;94153.44;;;14.83;34.87
30935;BME280;51033;42.648;23.292;2022-10-19T10:25:33;94142.22;;;14.90;33.63
30935;BME280;51033;42.648;23.292;2022-10-19T10:28:16;94147.13;;;15.00;32.11
30935;BME280;51033;42.648;23.292;2022-10-19T10:30:43;94126.44;;;14.76;32.33
30935;BME280;51033;42.648;23.292;2022-10-19T10:33:19;94136.63;;;14.95;31.84
30935;BME280;51033;42.648;23.292;2022-10-19T10:35:51;94127.34;;;14.80;31.35
30935;BME280;51033;42.648;23.292;2022-10-19T10:38:26;94134.06;;;14.98;32.30
30935;BME280;51033;42.648;23.292;2022-10-19T10:40:59;94106.63;;;14.89;30.20
30935;BME280;51033;42.648;23.292;2022-10-19T10:43:32;94089.66;;;14.85;30.11
30935;BME280;51033;42.648;23.292;2022-10-19T10:46:03;94088.31;;;15.03;31.20
30935;BME280;51033;42.648;23.292;2022-10-19T10:48:38;94112.31;;;15.36;30.74
30935;BME280;51033;42.648;23.292;2022-10-19T10:51:19;94089.34;;;15.23;30.67
30935;BME280;51033;42.648;23.292;2022-10-19T10:53:45;94102.84;;;15.39;30.17
30935;BME280;51033;42.648;23.292;2022-10-19T10:56:26;94104.19;;;15.45;30.04
30935;BME280;51033;42.648;23.292;2022-10-19T10:58:58;94077.06;;;15.34;30.23
30935;BME280;51033;42.648;23.292;2022-10-19T11:01:31;94090.03;;;15.44;30.84
30935;BME280;51033;42.648;23.292;2022-10-19T11:04:03;94081.22;;;15.44;29.29
30935;BME280;51033;42.648;23.292;2022-10-19T11:06:33;94073.38;;;15.39;28.60
30935;BME280;51033;42.648;23.292;2022-10-19T11:09:24;94055.16;;;15.32;28.29
30935;BME280;51033;42.648;23.292;2022-10-19T11:11:52;94074.38;;;15.59;29.47
30935;BME280;51033;42.648;23.292;2022-10-19T11:14:32;94044.78;;;15.43;28.72
30935;BME280;51033;42.648;23.292;2022-10-19T11:17:04;94025.22;;;15.42;28.46
30935;BME280;51033;42.648;23.292;2022-10-19T11:19:36;94071.41;;;15.88;28.68
30935;BME280;51033;42.648;23.292;2022-10-19T11:25:04;94058.41;;;15.90;27.78
30935;BME280;51033;42.648;23.292;2022-10-19T11:33:44;94054.53;;;16.15;28.48
30935;BME280;51033;42.648;23.292;2022-10-19T11:36:43;94055.84;;;16.21;28.13
30935;BME280;51033;42.648;23.292;2022-10-19T11:39:34;94056.97;;;16.33;28.02
30935;BME280;51033;42.648;23.292;2022-10-19T11:42:30;94054.13;;;16.41;28.00
30935;BME280;51033;42.648;23.292;2022-10-19T11:54:17;94046.78;;;16.54;27.79
30935;BME280;51033;42.648;23.292;2022-10-19T12:02:21;94024.88;;;16.83;27.21
30935;BME280;51033;42.648;23.292;2022-10-19T12:04:51;94015.44;;;16.89;27.30
30935;BME280;51033;42.648;23.292;2022-10-19T12:12:48;94020.28;;;16.99;26.50
30935;BME280;51033;42.648;23.292;2022-10-19T12:15:18;94013.41;;;17.02;26.31
30935;BME280;51033;42.648;23.292;2022-10-19T12:17:47;93984.75;;;16.90;26.72
30935;BME280;51033;42.648;23.292;2022-10-19T12:20:45;94018.47;;;17.19;27.04
30935;BME280;51033;42.648;23.292;2022-10-19T12:23:20;94016.97;;;17.22;27.35
30935;BME280;51033;42.648;23.292;2022-10-19T12:25:47;94022.44;;;17.25;27.44
30935;BME280;51033;42.648;23.292;2022-10-19T12:28:21;93995.47;;;17.22;27.89
30935;BME280;51033;42.648;23.292;2022-10-19T12:30:48;94012.16;;;17.46;27.20
30935;BME280;51033;42.648;23.292;2022-10-19T12:33:22;93980.50;;;17.21;26.89
30935;BME280;51033;42.648;23.292;2022-10-19T12:36:05;94014.44;;;17.44;27.69
30935;BME280;51033;42.648;23.292;2022-10-19T12:41:42;94005.16;;;17.42;27.59
30935;BME280;51033;42.648;23.292;2022-10-19T12:47:17;94008.50;;;17.54;26.86
30935;BME280;51033;42.648;23.292;2022-10-19T12:49:51;94008.31;;;17.63;26.77
30935;BME280;51033;42.648;23.292;2022-10-19T12:57:38;93976.31;;;17.58;27.54
30935;BME280;51033;42.648;23.292;2022-10-19T13:00:25;94001.16;;;17.90;27.89
30935;BME280;51033;42.648;23.292;2022-10-19T13:03:15;94010.72;;;17.87;27.85
30935;BME280;51033;42.648;23.292;2022-10-19T13:05:58;94010.88;;;17.94;27.80
30935;BME280;51033;42.648;23.292;2022-10-19T13:08:29;94005.75;;;17.89;28.00
30935;BME280;51033;42.648;23.292;2022-10-19T13:11:08;93991.22;;;17.75;28.06
30935;BME280;51033;42.648;23.292;2022-10-19T13:13:58;94004.38;;;17.95;27.32
30935;BME280;51033;42.648;23.292;2022-10-19T13:26:44;93937.47;;;17.94;28.31
30935;BME280;51033;42.648;23.292;2022-10-19T13:29:23;93986.22;;;18.31;28.88
30935;BME280;51033;42.648;23.292;2022-10-19T13:31:49;93986.47;;;18.45;28.32
30935;BME280;51033;42.648;23.292;2022-10-19T13:34:15;93979.28;;;18.53;28.64
30935;BME280;51033;42.648;23.292;2022-10-19T13:36:58;93987.53;;;18.40;28.29
30935;BME280;51033;42.648;23.292;2022-10-19T13:39:28;93940.47;;;18.12;28.20
30935;BME280;51033;42.648;23.292;2022-10-19T13:41:54;93956.72;;;18.38;28.28
30935;BME280;51033;42.648;23.292;2022-10-19T13:44:24;93978.38;;;18.68;28.01
30935;BME280;51033;42.648;23.292;2022-10-19T13:46:58;93945.41;;;18.52;28.08
30935;BME280;51033;42.648;23.292;2022-10-19T13:50:49;93977.19;;;18.65;28.37
30935;BME280;51033;42.648;23.292;2022-10-19T14:01:14;93969.06;;;18.84;28.91
30935;BME280;51033;42.648;23.292;2022-10-19T14:12:28;93924.41;;;18.61;29.09
30935;BME280;51033;42.648;23.292;2022-10-19T14:14:52;93953.84;;;18.73;28.93
30935;BME280;51033;42.648;23.292;2022-10-19T14:17:23;93905.50;;;18.34;28.95
30935;BME280;51033;42.648;23.292;2022-10-19T14:19:52;93949.13;;;18.66;29.38
30935;BME280;51033;42.648;23.292;2022-10-19T14:22:30;93960.53;;;18.60;29.48
30935;BME280;51033;42.648;23.292;2022-10-19T14:25:05;93957.25;;;18.47;29.13
30935;BME280;51033;42.648;23.292;2022-10-19T14:27:32;93956.72;;;18.38;30.04
30935;BME280;51033;42.648;23.292;2022-10-19T14:29:57;93945.72;;;18.04;29.73
30935;BME280;51033;42.648;23.292;2022-10-19T14:32:26;93969.38;;;18.15;29.83
30935;BME280;51033;42.648;23.292;2022-10-19T14:34:52;93981.13;;;18.07;29.90
30935;BME280;51033;42.648;23.292;2022-10-19T14:37:21;93938.06;;;17.87;30.50
30935;BME280;51033;42.648;23.292;2022-10-19T14:39:57;93972.44;;;17.94;30.09
30935;BME280;51033;42.648;23.292;2022-10-19T14:42:22;93976.75;;;17.79;30.38
30935;BME280;51033;42.648;23.292;2022-10-19T14:44:48;93963.28;;;17.60;30.79
30935;BME280;51033;42.648;23.292;2022-10-19T14:47:23;93988.19;;;17.76;30.60
30935;BME280;51033;42.648;23.292;2022-10-19T14:49:52;93982.69;;;17.69;30.32
30935;BME280;51033;42.648;23.292;2022-10-19T14:52:35;93968.06;;;17.51;30.40
30935;BME280;51033;42.648;23.292;2022-10-19T14:55:13;93990.75;;;17.50;30.87
30935;BME280;51033;42.648;23.292;2022-10-19T14:57:42;93975.28;;;17.28;31.10
30935;BME280;51033;42.648;23.292;2022-10-19T15:00:18;93997.81;;;17.07;31.29